createdAt,value
2023-01-28T00:00:12.352Z,4.10
2023-01-28T00:02:40.978Z,4.10
2023-01-28T00:05:12.785Z,4.10
2023-01-28T00:07:41.392Z,4.00
2023-01-28T00:10:10.829Z,4.00
2023-01-28T00:12:39.348Z,4.00
2023-01-28T00:15:08.872Z,4.00
2023-01-28T00:17:37.996Z,4.00
2023-01-28T00:20:07.284Z,4.00
2023-01-28T00:22:37.284Z,4.00
2023-01-28T00:25:06.317Z,4.00
2023-01-28T00:27:34.839Z,4.00
2023-01-28T00:30:03.334Z,4.00
2023-01-28T00:32:31.898Z,4.00
2023-01-28T00:35:00.396Z,4.00
2023-01-28T00:37:28.872Z,4.00
2023-01-28T00:39:58.747Z,3.90
2023-01-28T00:42:27.326Z,3.90
2023-01-28T00:44:55.896Z,3.90
2023-01-28T00:47:24.455Z,3.90
2023-01-28T00:49:53.431Z,3.90
2023-01-28T00:52:21.939Z,3.90
2023-01-28T00:54:50.472Z,3.90
2023-01-28T00:57:20.368Z,3.80
2023-01-28T00:59:48.920Z,3.80
2023-01-28T01:02:17.681Z,3.80
2023-01-28T01:04:55.071Z,3.80
2023-01-28T01:07:32.188Z,3.80
2023-01-28T01:10:01.281Z,3.90
2023-01-28T01:12:31.591Z,3.90
2023-01-28T01:15:00.143Z,3.90
2023-01-28T01:17:31.661Z,3.80
2023-01-28T01:20:00.149Z,3.70
2023-01-28T01:22:28.702Z,3.60
2023-01-28T01:24:57.362Z,3.50
2023-01-28T01:27:25.913Z,3.50
2023-01-28T01:29:55.822Z,3.60
2023-01-28T01:32:24.484Z,3.60
2023-01-28T01:34:53.018Z,3.60
2023-01-28T01:37:21.509Z,3.50
2023-01-28T01:39:50.173Z,3.50
2023-01-28T01:42:18.742Z,3.60
2023-01-28T01:45:05.721Z,3.70
2023-01-28T01:47:39.933Z,3.90
2023-01-28T01:50:14.487Z,4.10
2023-01-28T01:52:44.307Z,4.60
2023-01-28T01:55:16.354Z,5.00
2023-01-28T01:57:45.835Z,5.30
2023-01-28T02:00:16.492Z,5.40
2023-01-28T02:02:46.908Z,5.70
2023-01-28T02:05:18.620Z,5.70
2023-01-28T02:07:48.758Z,5.70
2023-01-28T02:10:17.980Z,5.60
2023-01-28T02:12:50.795Z,5.50
2023-01-28T02:15:22.086Z,5.50
2023-01-28T02:17:51.692Z,5.50
2023-01-28T02:20:23.239Z,5.30
2023-01-28T02:23:26.112Z,5.00
2023-01-28T02:26:16.418Z,4.70
2023-01-28T02:28:51.049Z,4.70
2023-01-28T02:31:22.769Z,4.70
2023-01-28T02:33:55.787Z,4.80
2023-01-28T02:36:31.725Z,4.80
2023-01-28T02:39:03.125Z,4.80
2023-01-28T02:41:34.016Z,4.60
2023-01-28T02:44:04.913Z,4.60
2023-01-28T02:46:55.592Z,4.40
2023-01-28T02:49:28.034Z,4.30
2023-01-28T02:52:44.047Z,4.30
2023-01-28T02:55:18.604Z,4.40
2023-01-28T02:57:57.029Z,4.50
2023-01-28T03:00:29.397Z,4.40
2023-01-28T03:03:02.266Z,4.40
2023-01-28T03:05:34.708Z,4.40
2023-01-28T03:08:23.971Z,4.30
2023-01-28T03:11:10.749Z,4.20
2023-01-28T03:13:58.069Z,4.10
2023-01-28T03:16:45.648Z,4.00
2023-01-28T03:19:32.526Z,4.10
2023-01-28T03:22:18.751Z,4.10
2023-01-28T03:25:07.967Z,4.00
2023-01-28T03:27:59.028Z,3.90
2023-01-28T03:30:48.174Z,3.80
2023-01-28T03:33:35.922Z,3.70
2023-01-28T03:36:22.252Z,3.70
2023-01-28T03:38:50.763Z,3.60
2023-01-28T03:41:23.208Z,3.60
2023-01-28T03:43:53.495Z,3.60
2023-01-28T03:46:22.137Z,3.60
2023-01-28T03:48:52.040Z,3.50
2023-01-28T03:51:20.611Z,3.60
2023-01-28T03:53:49.220Z,3.60
2023-01-28T03:56:18.512Z,3.60
2023-01-28T03:58:56.582Z,3.60
2023-01-28T04:01:25.688Z,3.80
2023-01-28T04:03:55.590Z,4.00
2023-01-28T04:06:24.221Z,3.90
2023-01-28T04:08:54.560Z,3.70
2023-01-28T04:11:26.118Z,3.60
2023-01-28T04:13:54.640Z,3.50
2023-01-28T04:16:23.196Z,3.50
2023-01-28T04:18:51.738Z,3.60
2023-01-28T04:21:21.764Z,3.70
2023-01-28T04:23:50.233Z,3.70
2023-01-28T04:26:18.893Z,3.70
2023-01-28T04:28:47.448Z,3.70
2023-01-28T04:31:15.992Z,3.70
2023-01-28T04:33:44.531Z,3.70
2023-01-28T04:36:13.075Z,3.70
2023-01-28T04:38:43.001Z,3.70
2023-01-28T04:41:12.217Z,3.70
2023-01-28T04:43:40.748Z,3.80
2023-01-28T04:46:09.304Z,3.80
2023-01-28T04:48:38.406Z,3.70
2023-01-28T04:51:07.805Z,3.70
2023-01-28T04:53:36.507Z,3.60
2023-01-28T04:56:06.558Z,3.60
2023-01-28T04:58:35.129Z,3.60
2023-01-28T05:01:03.732Z,3.60
2023-01-28T05:03:33.231Z,3.60
2023-01-28T05:06:04.539Z,3.60
2023-01-28T05:08:33.053Z,3.60
2023-01-28T05:11:01.615Z,3.50
2023-01-28T05:13:31.644Z,3.50
2023-01-28T05:16:00.198Z,3.50
2023-01-28T05:18:28.799Z,3.50
2023-01-28T05:20:57.290Z,3.40
2023-01-28T05:23:25.911Z,3.40
2023-01-28T05:25:54.527Z,3.40
2023-01-28T05:28:23.121Z,3.40
2023-01-28T05:30:53.055Z,3.40
2023-01-28T05:33:21.593Z,3.30
2023-01-28T05:35:50.695Z,3.30
2023-01-28T05:38:19.257Z,3.30
2023-01-28T05:40:48.905Z,3.20
2023-01-28T05:43:17.776Z,3.30
2023-01-28T05:45:47.618Z,3.70
2023-01-28T05:48:17.616Z,4.20
2023-01-28T05:50:48.174Z,4.20
2023-01-28T05:53:16.786Z,4.20
2023-01-28T05:55:47.220Z,4.00
2023-01-28T05:58:15.888Z,3.80
2023-01-28T06:00:44.508Z,3.80
2023-01-28T06:03:13.343Z,3.70
2023-01-28T06:05:43.290Z,3.60
2023-01-28T06:08:11.871Z,3.60
2023-01-28T06:10:40.412Z,3.50
2023-01-28T06:13:09.005Z,3.40
2023-01-28T06:15:37.545Z,3.30
2023-01-28T06:18:06.120Z,3.20
2023-01-28T06:20:34.708Z,3.20
2023-01-28T06:23:04.648Z,3.30
2023-01-28T06:25:33.348Z,3.40
2023-01-28T06:28:01.936Z,3.70
2023-01-28T06:30:30.497Z,4.00
2023-01-28T06:32:59.081Z,4.20
2023-01-28T06:35:27.677Z,4.40
2023-01-28T06:37:56.261Z,4.20
2023-01-28T06:40:27.065Z,4.00
2023-01-28T06:43:14.092Z,3.70
2023-01-28T06:45:42.783Z,3.50
2023-01-28T06:48:11.363Z,3.30
2023-01-28T06:50:39.863Z,3.20
2023-01-28T06:53:08.470Z,2.90
2023-01-28T06:55:38.322Z,2.70
2023-01-28T06:58:06.871Z,2.50
2023-01-28T07:00:35.388Z,2.30
2023-01-28T07:03:03.984Z,2.20
2023-01-28T07:05:32.862Z,2.10
2023-01-28T07:08:02.324Z,1.90
2023-01-28T07:10:31.334Z,1.90
2023-01-28T07:13:01.235Z,1.80
2023-01-28T07:15:29.751Z,1.80
2023-01-28T07:17:59.581Z,1.80
2023-01-28T07:20:28.402Z,1.80
2023-01-28T07:22:56.953Z,1.80
2023-01-28T07:25:25.455Z,1.80
2023-01-28T07:27:54.878Z,1.80
2023-01-28T07:30:25.232Z,1.70
2023-01-28T07:32:57.096Z,1.70
2023-01-28T07:35:26.129Z,1.80
2023-01-28T07:37:55.087Z,1.70
2023-01-28T07:40:23.943Z,1.70
2023-01-28T07:42:52.661Z,1.50
2023-01-28T07:45:21.165Z,1.50
2023-01-28T07:47:56.980Z,1.50
2023-01-28T07:50:26.104Z,1.60
2023-01-28T07:52:54.638Z,1.50
2023-01-28T07:55:23.288Z,1.60
2023-01-28T07:57:53.315Z,1.70
2023-01-28T08:00:22.536Z,1.70
2023-01-28T08:02:51.522Z,1.60
2023-01-28T08:05:22.846Z,1.70
2023-01-28T08:07:51.515Z,1.80
2023-01-28T08:10:20.963Z,1.80
2023-01-28T08:12:53.838Z,1.90
2023-01-28T08:15:22.569Z,2.00
2023-01-28T08:17:51.255Z,2.00
2023-01-28T08:20:21.231Z,2.10
2023-01-28T08:22:49.798Z,2.00
2023-01-28T08:25:18.627Z,2.10
2023-01-28T08:27:47.226Z,2.10
2023-01-28T08:30:16.374Z,2.10
2023-01-28T08:32:45.122Z,2.00
2023-01-28T08:35:13.631Z,2.20
2023-01-28T08:37:43.617Z,2.20
2023-01-28T08:40:13.774Z,2.20
2023-01-28T08:42:48.398Z,2.20
2023-01-28T08:45:17.076Z,2.20
2023-01-28T08:47:52.086Z,2.30
2023-01-28T08:50:21.579Z,2.20
2023-01-28T08:52:56.633Z,2.20
2023-01-28T08:55:25.319Z,2.20
2023-01-28T08:57:54.015Z,2.10
2023-01-28T09:00:23.176Z,2.10
2023-01-28T09:02:53.186Z,2.00
2023-01-28T09:05:22.705Z,2.00
2023-01-28T09:07:52.567Z,2.10
2023-01-28T09:10:21.996Z,2.10
2023-01-28T09:12:50.920Z,2.20
2023-01-28T09:15:19.564Z,2.10
2023-01-28T09:17:48.087Z,2.10
2023-01-28T09:20:20.534Z,2.20
2023-01-28T09:22:49.059Z,2.30
2023-01-28T09:25:18.976Z,2.30
2023-01-28T09:27:47.558Z,2.20
2023-01-28T09:30:17.105Z,2.20
2023-01-28T09:32:46.061Z,2.20
2023-01-28T09:35:15.344Z,2.30
2023-01-28T09:37:43.988Z,2.30
2023-01-28T09:40:17.014Z,2.30
2023-01-28T09:42:54.979Z,2.40
2023-01-28T09:45:26.827Z,2.40
2023-01-28T09:47:57.759Z,2.30
2023-01-28T09:50:32.428Z,2.40
2023-01-28T09:53:04.773Z,2.40
2023-01-28T09:55:35.951Z,2.50
2023-01-28T09:58:07.528Z,2.50
2023-01-28T10:00:40.381Z,2.60
2023-01-28T10:03:30.040Z,2.60
2023-01-28T10:06:02.931Z,2.60
2023-01-28T10:08:47.865Z,2.60
2023-01-28T10:11:21.834Z,2.60
2023-01-28T10:13:57.047Z,2.50
2023-01-28T10:16:29.672Z,2.50
2023-01-28T10:19:02.419Z,2.50
2023-01-28T10:21:35.740Z,2.50
2023-01-28T10:24:08.202Z,2.30
2023-01-28T10:26:38.334Z,2.20
2023-01-28T10:29:14.117Z,2.00
2023-01-28T10:31:48.908Z,2.20
2023-01-28T10:34:19.977Z,2.20
2023-01-28T10:36:49.190Z,2.20
2023-01-28T10:39:19.306Z,2.00
2023-01-28T10:41:57.418Z,2.00
2023-01-28T10:44:33.602Z,2.00
2023-01-28T10:47:05.624Z,2.10
2023-01-28T10:49:41.572Z,2.10
2023-01-28T10:52:14.240Z,2.00
2023-01-28T10:54:42.835Z,2.10
2023-01-28T10:57:14.230Z,2.10
2023-01-28T10:59:44.463Z,2.20
2023-01-28T11:02:28.380Z,2.30
2023-01-28T11:05:08.498Z,2.30
2023-01-28T11:07:37.071Z,2.40
2023-01-28T11:10:27.661Z,2.50
2023-01-28T11:13:00.607Z,2.40
2023-01-28T11:15:30.680Z,2.40
2023-01-28T11:18:02.255Z,2.50
2023-01-28T11:20:32.786Z,2.50
2023-01-28T11:23:01.365Z,2.60
2023-01-28T11:25:32.352Z,2.60
2023-01-28T11:28:02.063Z,2.60
2023-01-28T11:30:34.022Z,2.60
2023-01-28T11:33:08.952Z,2.70
2023-01-28T11:35:37.461Z,2.80
2023-01-28T11:38:18.502Z,2.80
2023-01-28T11:40:52.320Z,2.80
2023-01-28T11:43:22.858Z,2.90
2023-01-28T11:46:02.658Z,2.90
2023-01-28T11:48:37.060Z,2.90
2023-01-28T11:51:09.236Z,2.90
2023-01-28T11:53:55.339Z,3.00
2023-01-28T11:56:43.365Z,3.00
2023-01-28T11:59:26.919Z,3.00
2023-01-28T12:02:01.281Z,3.00
2023-01-28T12:04:43.293Z,3.00
2023-01-28T12:07:27.517Z,2.90
2023-01-28T12:09:58.497Z,2.90
2023-01-28T12:12:44.816Z,2.90
2023-01-28T12:15:53.019Z,2.90
2023-01-28T12:18:39.232Z,2.90
2023-01-28T12:21:10.693Z,2.90
2023-01-28T12:23:55.064Z,3.00
2023-01-28T12:26:30.071Z,3.00
2023-01-28T12:29:08.209Z,3.00
2023-01-28T12:31:58.406Z,3.00
2023-01-28T12:34:42.315Z,2.90
2023-01-28T12:37:15.730Z,2.90
2023-01-28T12:39:53.392Z,3.00
2023-01-28T12:42:32.457Z,3.00
2023-01-28T12:45:06.088Z,3.10
2023-01-28T12:47:37.336Z,3.10
2023-01-28T12:50:14.349Z,3.20
2023-01-28T12:52:47.152Z,3.20
2023-01-28T12:55:18.784Z,3.20
2023-01-28T12:57:48.767Z,3.10
2023-01-28T13:00:26.490Z,3.10
2023-01-28T13:03:02.889Z,3.10
2023-01-28T13:05:38.555Z,3.10
2023-01-28T13:08:13.187Z,3.10
2023-01-28T13:10:44.213Z,3.10
2023-01-28T13:13:18.272Z,3.10
2023-01-28T13:15:47.543Z,3.00
2023-01-28T13:18:36.616Z,3.00
2023-01-28T13:21:07.160Z,3.00
2023-01-28T13:23:40.460Z,3.00
2023-01-28T13:26:28.412Z,3.00
2023-01-28T13:29:09.904Z,3.00
2023-01-28T13:31:40.340Z,3.00
2023-01-28T13:34:09.638Z,3.00
2023-01-28T13:36:45.373Z,3.00
2023-01-28T13:39:19.621Z,3.00
2023-01-28T13:41:49.908Z,3.00
2023-01-28T13:44:29.424Z,3.00
2023-01-28T13:47:00.454Z,2.90
2023-01-28T13:49:34.412Z,2.90
2023-01-28T13:52:10.131Z,2.90
2023-01-28T13:54:42.232Z,2.80
2023-01-28T13:57:58.727Z,2.90
2023-01-28T14:00:32.741Z,2.90
2023-01-28T14:03:45.772Z,2.90
2023-01-28T14:06:46.222Z,2.90
2023-01-28T14:09:34.469Z,2.90
2023-01-28T14:12:21.521Z,2.80
2023-01-28T14:15:17.406Z,2.90
2023-01-28T14:17:47.864Z,2.90
2023-01-28T14:20:20.283Z,2.90
2023-01-28T14:22:49.191Z,2.80
2023-01-28T14:25:36.583Z,2.80
2023-01-28T14:28:07.135Z,2.80
2023-01-28T14:30:51.855Z,2.90
2023-01-28T14:33:20.585Z,2.90
2023-01-28T14:35:50.087Z,3.00
2023-01-28T14:38:21.008Z,3.10
2023-01-28T14:40:52.955Z,3.10
2023-01-28T14:43:23.541Z,3.10
2023-01-28T14:46:04.224Z,3.10
2023-01-28T14:48:38.271Z,3.10
2023-01-28T14:51:34.730Z,3.00
2023-01-28T14:54:29.808Z,3.00
2023-01-28T14:57:11.354Z,2.80
2023-01-28T14:59:43.466Z,2.70
2023-01-28T15:02:18.630Z,2.70
2023-01-28T15:04:47.285Z,2.70
2023-01-28T15:07:21.025Z,2.60
2023-01-28T15:09:49.964Z,2.50
2023-01-28T15:12:20.064Z,2.40
2023-01-28T15:14:49.100Z,2.40
2023-01-28T15:17:25.671Z,2.30
2023-01-28T15:19:55.256Z,2.30
2023-01-28T15:22:26.058Z,2.30
2023-01-28T15:24:54.826Z,2.30
2023-01-28T15:27:29.096Z,2.30
2023-01-28T15:29:59.277Z,2.30
2023-01-28T15:32:29.752Z,2.30
2023-01-28T15:35:01.113Z,2.20
2023-01-28T15:37:29.720Z,2.10
2023-01-28T15:40:06.743Z,2.10
2023-01-28T15:42:38.546Z,2.10
2023-01-28T15:45:17.504Z,2.20
2023-01-28T15:47:46.605Z,2.30
2023-01-28T15:50:20.578Z,2.30
2023-01-28T15:52:49.186Z,2.40
2023-01-28T15:55:39.089Z,2.40
2023-01-28T15:58:30.828Z,2.40
2023-01-28T16:01:15.274Z,2.40
2023-01-28T16:03:45.386Z,2.40
2023-01-28T16:06:17.340Z,2.40
2023-01-28T16:08:53.290Z,2.40
2023-01-28T16:11:30.399Z,2.40
2023-01-28T16:14:01.820Z,2.40
2023-01-28T16:16:32.578Z,2.30
2023-01-28T16:19:01.637Z,2.30
2023-01-28T16:21:32.456Z,2.30
2023-01-28T16:24:02.968Z,2.30
2023-01-28T16:26:33.228Z,2.30
2023-01-28T16:29:14.711Z,2.30
2023-01-28T16:31:43.350Z,2.30
2023-01-28T16:34:12.648Z,2.30
2023-01-28T16:36:41.187Z,2.30
2023-01-28T16:39:09.721Z,2.40
2023-01-28T16:41:41.187Z,2.40
2023-01-28T16:44:13.865Z,2.50
2023-01-28T16:46:42.931Z,2.50
2023-01-28T16:49:12.077Z,2.60
2023-01-28T16:51:42.735Z,2.60
2023-01-28T16:54:14.952Z,2.60
2023-01-28T16:56:46.029Z,2.70
2023-01-28T16:59:17.369Z,2.70
2023-01-28T17:01:46.475Z,2.70
2023-01-28T17:04:15.349Z,2.70
2023-01-28T17:06:45.232Z,2.70
2023-01-28T17:09:14.691Z,2.70
2023-01-28T17:11:43.551Z,2.70
2023-01-28T17:14:12.595Z,2.70
2023-01-28T17:16:42.601Z,2.70
2023-01-28T17:19:11.156Z,2.70
2023-01-28T17:21:39.773Z,2.70
2023-01-28T17:24:09.196Z,2.70
2023-01-28T17:26:38.207Z,2.70
2023-01-28T17:29:07.029Z,2.60
2023-01-28T17:31:36.225Z,2.70
2023-01-28T17:34:08.159Z,2.70
2023-01-28T17:36:36.795Z,2.70
2023-01-28T17:39:06.065Z,2.70
2023-01-28T17:41:34.797Z,2.70
2023-01-28T17:44:04.612Z,2.70
2023-01-28T17:46:33.469Z,2.70
2023-01-28T17:49:03.117Z,2.70
2023-01-28T17:51:33.086Z,2.70
2023-01-28T17:54:01.784Z,2.70
2023-01-28T17:56:31.215Z,2.70
2023-01-28T17:59:03.501Z,2.70
2023-01-28T18:01:32.514Z,2.70
2023-01-28T18:04:01.763Z,2.70
2023-01-28T18:06:35.838Z,2.70
2023-01-28T18:09:05.457Z,2.70
2023-01-28T18:11:34.260Z,2.70
2023-01-28T18:14:02.937Z,2.70
2023-01-28T18:16:31.494Z,2.70
2023-01-28T18:19:00.361Z,2.70
2023-01-28T18:21:51.328Z,2.70
2023-01-28T18:24:23.825Z,2.70
2023-01-28T18:26:52.619Z,2.70
2023-01-28T18:29:23.957Z,2.70
2023-01-28T18:31:54.308Z,2.70
2023-01-28T18:34:24.056Z,2.60
2023-01-28T18:36:54.272Z,2.60
2023-01-28T18:39:23.333Z,2.60
2023-01-28T18:41:54.932Z,2.60
2023-01-28T18:44:24.476Z,2.60
2023-01-28T18:46:53.661Z,2.60
2023-01-28T18:49:22.304Z,2.60
2023-01-28T18:51:50.850Z,2.60
2023-01-28T18:54:21.026Z,2.60
2023-01-28T18:56:49.934Z,2.60
2023-01-28T18:59:18.501Z,2.60
2023-01-28T19:01:48.044Z,2.70
2023-01-28T19:04:16.793Z,2.60
2023-01-28T19:06:45.681Z,2.60
2023-01-28T19:09:15.760Z,2.60
2023-01-28T19:11:46.139Z,2.60
2023-01-28T19:14:15.862Z,2.60
2023-01-28T19:16:44.680Z,2.60
2023-01-28T19:19:13.906Z,2.60
2023-01-28T19:21:42.566Z,2.60
2023-01-28T19:24:14.230Z,2.60
2023-01-28T19:26:45.538Z,2.60
2023-01-28T19:29:15.904Z,2.60
2023-01-28T19:31:48.776Z,2.60
2023-01-28T19:34:17.694Z,2.60
2023-01-28T19:36:46.833Z,2.60
2023-01-28T19:39:15.733Z,2.60
2023-01-28T19:41:45.990Z,2.60
2023-01-28T19:44:14.543Z,2.60
2023-01-28T19:46:43.178Z,2.60
2023-01-28T19:49:12.705Z,2.60
2023-01-28T19:51:41.252Z,2.60
2023-01-28T19:54:09.934Z,2.60
2023-01-28T19:56:38.691Z,2.60
2023-01-28T19:59:08.784Z,2.60
2023-01-28T20:01:37.447Z,2.60
2023-01-28T20:04:06.152Z,2.60
2023-01-28T20:06:36.068Z,2.60
2023-01-28T20:09:07.706Z,2.60
2023-01-28T20:11:36.495Z,2.60
2023-01-28T20:14:04.996Z,2.60
2023-01-28T20:16:36.462Z,2.60
2023-01-28T20:19:06.886Z,2.60
2023-01-28T20:21:37.149Z,2.60
2023-01-28T20:24:06.843Z,2.50
2023-01-28T20:26:36.629Z,2.50
2023-01-28T20:29:07.728Z,2.50
2023-01-28T20:31:38.764Z,2.50
2023-01-28T20:34:07.502Z,2.50
2023-01-28T20:36:36.064Z,2.50
2023-01-28T20:39:04.755Z,2.50
2023-01-28T20:41:33.484Z,2.50
2023-01-28T20:44:02.056Z,2.50
2023-01-28T20:46:31.996Z,2.50
2023-01-28T20:49:06.242Z,2.50
2023-01-28T20:51:36.034Z,2.50
2023-01-28T20:54:05.218Z,2.50
2023-01-28T20:56:34.001Z,2.50
2023-01-28T20:59:04.421Z,2.40
2023-01-28T21:01:34.860Z,2.40
2023-01-28T21:04:05.791Z,2.40
2023-01-28T21:06:34.554Z,2.40
2023-01-28T21:09:03.445Z,2.40
2023-01-28T21:11:32.422Z,2.40
2023-01-28T21:14:01.035Z,2.40
2023-01-28T21:16:29.879Z,2.30
2023-01-28T21:18:58.549Z,2.30
2023-01-28T21:21:29.843Z,2.30
2023-01-28T21:24:00.679Z,2.40
2023-01-28T21:26:29.437Z,2.40
2023-01-28T21:28:57.975Z,2.30
2023-01-28T21:31:27.629Z,2.30
2023-01-28T21:33:57.030Z,2.30
2023-01-28T21:36:26.857Z,2.30
2023-01-28T21:38:58.147Z,2.30
2023-01-28T21:41:27.028Z,2.30
2023-01-28T21:43:57.748Z,2.30
2023-01-28T21:46:27.970Z,2.30
2023-01-28T21:48:57.160Z,2.30
2023-01-28T21:51:39.470Z,2.40
2023-01-28T21:54:13.018Z,2.40
2023-01-28T21:56:42.867Z,2.40
2023-01-28T21:59:30.307Z,2.40
2023-01-28T22:02:00.017Z,2.50
2023-01-28T22:04:30.547Z,2.50
2023-01-28T22:06:59.363Z,2.50
2023-01-28T22:09:29.941Z,2.50
2023-01-28T22:11:58.646Z,2.50
2023-01-28T22:14:27.689Z,2.50
2023-01-28T22:16:56.411Z,2.50
2023-01-28T22:19:24.969Z,2.50
2023-01-28T22:21:53.571Z,2.60
2023-01-28T22:24:24.473Z,2.60
2023-01-28T22:26:55.401Z,2.60
2023-01-28T22:29:24.661Z,2.60
2023-01-28T22:31:54.802Z,2.60
2023-01-28T22:34:23.548Z,2.60
2023-01-28T22:36:52.671Z,2.60
2023-01-28T22:39:21.361Z,2.60
2023-01-28T22:41:49.831Z,2.60
2023-01-28T22:44:20.922Z,2.60
2023-01-28T22:46:49.647Z,2.50
2023-01-28T22:49:18.284Z,2.60
2023-01-28T22:51:46.815Z,2.50
2023-01-28T22:54:15.394Z,2.60
2023-01-28T22:56:43.941Z,2.60
2023-01-28T22:59:13.004Z,3.50
2023-01-28T23:01:42.959Z,4.40
2023-01-28T23:04:12.242Z,5.30
2023-01-28T23:06:40.735Z,6.00
2023-01-28T23:09:09.282Z,6.60
2023-01-28T23:11:37.794Z,7.00
2023-01-28T23:14:23.587Z,7.40
2023-01-28T23:17:11.055Z,7.60
2023-01-28T23:19:56.966Z,7.30
2023-01-28T23:22:46.132Z,7.00
2023-01-28T23:25:14.873Z,6.80
2023-01-28T23:27:43.840Z,6.60
2023-01-28T23:30:14.519Z,6.50
2023-01-28T23:32:47.933Z,6.50
2023-01-28T23:35:17.088Z,6.60
2023-01-28T23:37:45.586Z,6.50
2023-01-28T23:40:14.916Z,6.70
2023-01-28T23:42:44.774Z,6.80
2023-01-28T23:45:13.285Z,6.70
2023-01-28T23:47:41.822Z,6.60
2023-01-28T23:50:12.577Z,6.50
2023-01-28T23:52:41.121Z,6.40
2023-01-28T23:55:10.215Z,6.20
2023-01-28T23:57:38.763Z,6.00
